CDT,Max TemperatureF,Mean TemperatureF,Min TemperatureF,Max Dew PointF,MeanDew PointF,Min DewpointF,Max Humidity, Mean Humidity, Min Humidity, Max Sea Level PressureIn, Mean Sea Level PressureIn, Min Sea Level PressureIn, Max VisibilityMiles, Mean VisibilityMiles, Min VisibilityMiles, Max Wind SpeedMPH, Mean Wind SpeedMPH, Max Gust SpeedMPH,PrecipitationIn, CloudCover, Events, WindDirDegrees
2011-4-1,59,52,44,43,40,37,81,68,54,29.86,29.80,29.72,10,8,4,16,6,21,0.00,6,,240
2011-4-2,69,56,44,41,37,34,71,50,30,30.09,30.01,29.92,10,10,10,12,6,16,0.00,0,,259
2011-4-3,84,68,51,57,47,34,53,44,33,29.99,29.83,29.65,10,10,10,22,9,36,0.00,0,,180
2011-4-4,75,60,46,63,49,30,78,63,53,29.92,29.67,29.56,10,10,9,26,15,37,0.58,7,Thunderstorm,261
2011-4-5,60,50,39,30,28,27,61,43,29,30.12,30.03,29.96,10,10,10,13,8,17,0.00,0,,255
2011-4-6,73,60,48,36,32,28,46,35,23,30.05,29.98,29.85,10,10,10,18,9,28,0.00,0,,187
2011-4-7,75,65,55,54,47,37,67,53,42,30.00,29.91,29.82,10,10,7,15,7,22,0.00,0,,175
2011-4-8,82,73,64,64,59,54,78,65,51,29.97,29.90,29.82,10,9,2,13,7,16,0.00,4,,187
2011-4-9,87,78,69,64,60,54,73,55,33,30.01,29.96,29.92,10,10,10,21,8,26,0.00,0,,205
2011-4-10,87,78,68,63,59,54,69,53,40,29.96,29.91,29.81,10,10,9,18,10,28,0.00,1,,194
2011-4-11,75,68,60,61,58,52,82,70,57,29.86,29.77,29.68,10,8,2,16,8,31,0.01,5,Thunderstorm,199
2011-4-12,66,60,53,46,43,39,77,57,43,30.10,30.02,29.90,10,10,10,15,9,25,0.00,1,,323
2011-4-13,73,58,44,48,44,39,82,57,38,30.12,30.07,30.00,10,10,6,8,2,,0.00,0,,102
2011-4-14,77,64,51,48,46,43,76,51,34,30.02,29.94,29.82,10,10,5,13,6,16,0.00,0,,109
2011-4-15,75,66,57,57,50,39,82,61,36,29.80,29.62,29.49,10,10,6,26,12,41,1.03,5,Thunderstorm,174
2011-4-16,53,50,46,39,35,30,76,57,50,29.99,29.80,29.62,10,10,8,22,16,32,0.06,8,,262
2011-4-17,75,57,39,41,37,34,81,51,27,30.06,30.00,29.86,10,10,9,13,3,20,0.00,0,,188
2011-4-18,75,66,57,61,50,39,69,55,45,29.90,29.85,29.76,10,10,5,14,7,20,0.00,5,,177
2011-4-19,87,79,71,64,63,61,73,59,43,29.80,29.74,29.62,10,10,10,22,12,43,0.00,5,,193
2011-4-20,,,,,,,,,,,,,,,,,,,0.00,,,-1
2011-4-21,,,,,,,,,,,,,,,,,,,,,,
2011-4-22,,,,,,,,,,,,,,,,,,,,,,
2011-4-23,,,,,,,,,,,,,,,,,,,,,,
2011-4-24,,,,,,,,,,,,,,,,,,,,,,
2011-4-25,73,68,64,64,61,57,78,74,69,29.78,29.68,29.59,10,10,10,13,9,16,0.02,5,,140
2011-4-26,,,,,,,,,,,,,,,,,,,,,,
2011-4-27,,,,,,,,,,,,,,,,,,,,,,
2011-4-28,62,61,59,46,46,45,63,58,52,30.02,30.02,30.02,10,10,10,10,9,,0.00,0,,242
2011-4-29,78,64,51,52,47,41,82,52,28,30.08,30.01,29.93,10,10,10,12,5,,0.00,0,,242
2011-4-30,77,67,57,54,48,46,67,52,36,29.94,29.90,29.84,10,10,10,15,6,24,0.00,4,Thunderstorm,157